Time;durP1;ratioP1;P1;durP2;ratioP2;P2;SDS_P1;SDS_P2;PMS_P1;PMS_P2;Temp;Humidity;BMP_temperature;BMP_pressure;BME280_temperature;BME280_humidity;BME280_pressure;Samples;Min_cycle;Max_cycle;Signal;HPM_P1;HPM_P2
2024/04/04 00:00:19;;;;;;;3.42;1.63;;;;;;;;;;4999968;28;20018;-60
2024/04/04 00:02:45;;;;;;;5.40;2.00;;;;;;;;;;4988296;28;20788;-60
2024/04/04 00:05:11;;;;;;;3.25;1.83;;;;;;;;;;4996950;28;20049;-60
2024/04/04 00:07:36;;;;;;;3.42;2.10;;;;;;;;;;5000652;28;20025;-62
2024/04/04 00:10:02;;;;;;;3.63;1.90;;;;;;;;;;4996867;28;20022;-61
2024/04/04 00:12:27;;;;;;;3.53;2.03;;;;;;;;;;5002775;28;20030;-60
2024/04/04 00:14:53;;;;;;;4.28;1.60;;;;;;;;;;4990354;28;20069;-60
2024/04/04 00:17:18;;;;;;;3.95;1.92;;;;;;;;;;4988460;28;20121;-61
2024/04/04 00:19:44;;;;;;;3.53;1.92;;;;;;;;;;4990236;28;20113;-63
2024/04/04 00:22:09;;;;;;;3.33;1.77;;;;;;;;;;5009114;28;20014;-60
2024/04/04 00:24:34;;;;;;;3.75;1.80;;;;;;;;;;5021705;28;20029;-60
2024/04/04 00:26:59;;;;;;;3.03;1.70;;;;;;;;;;5007022;28;20018;-61
2024/04/04 00:29:25;;;;;;;3.28;1.83;;;;;;;;;;4999596;28;20014;-61
2024/04/04 00:31:50;;;;;;;2.55;1.60;;;;;;;;;;4997902;28;20105;-60
2024/04/04 00:34:16;;;;;;;3.72;2.13;;;;;;;;;;4997819;28;20034;-62
2024/04/04 00:36:41;;;;;;;2.63;1.80;;;;;;;;;;4990212;28;20077;-61
2024/04/04 00:39:07;;;;;;;2.92;1.50;;;;;;;;;;5016537;28;21568;-60
2024/04/04 00:41:32;;;;;;;3.05;1.88;;;;;;;;;;5010345;28;20117;-60
2024/04/04 00:43:57;;;;;;;2.80;1.70;;;;;;;;;;5004425;28;20034;-61
2024/04/04 00:46:23;;;;;;;3.65;1.88;;;;;;;;;;5007014;28;20065;-61
2024/04/04 00:48:48;;;;;;;3.45;1.63;;;;;;;;;;4992111;28;20046;-65
2024/04/04 00:51:14;;;;;;;2.88;1.63;;;;;;;;;;4994462;28;20065;-61
2024/04/04 00:53:39;;;;;;;3.10;1.60;;;;;;;;;;5008147;28;20518;-61
2024/04/04 00:56:04;;;;;;;2.70;1.70;;;;;;;;;;4995464;28;20037;-62
2024/04/04 00:58:30;;;;;;;2.53;1.70;;;;;;;;;;5009970;28;20033;-61
2024/04/04 01:00:55;;;;;;;3.30;1.70;;;;;;;;;;4997858;28;20065;-61
2024/04/04 01:03:22;;;;;;;2.72;1.75;;;;;;;;;;5010834;28;20052;-62
2024/04/04 01:05:47;;;;;;;2.92;1.55;;;;;;;;;;5010184;28;20037;-62
2024/04/04 01:08:14;;;;;;;4.97;1.75;;;;;;;;;;5000004;28;20034;-61
2024/04/04 01:10:39;;;;;;;3.13;1.70;;;;;;;;;;4991672;28;20054;-61
2024/04/04 01:13:05;;;;;;;2.67;1.73;;;;;;;;;;5009138;28;20073;-60
2024/04/04 01:15:30;;;;;;;3.03;2.00;;;;;;;;;;5001320;28;20054;-61
2024/04/04 01:17:58;;;;;;;2.80;1.60;;;;;;;;;;4990112;28;20034;-61
2024/04/04 01:20:24;;;;;;;3.30;1.70;;;;;;;;;;5029769;28;20091;-60
2024/04/04 01:22:49;;;;;;;2.90;1.30;;;;;;;;;;5027059;28;20041;-61
2024/04/04 01:25:14;;;;;;;3.28;1.65;;;;;;;;;;5030236;28;20048;-60
2024/04/04 01:27:40;;;;;;;2.63;1.73;;;;;;;;;;5016240;28;20042;-60
2024/04/04 01:30:05;;;;;;;3.45;1.60;;;;;;;;;;5022369;28;20044;-60
2024/04/04 01:32:30;;;;;;;2.90;1.50;;;;;;;;;;5014892;28;20038;-60
2024/04/04 01:37:40;;;;;;;3.03;1.45;;;;;;;;;;5029085;28;20064;-61
2024/04/04 01:40:08;;;;;;;2.85;1.60;;;;;;;;;;5017822;28;20073;-62
2024/04/04 01:42:33;;;;;;;3.20;1.92;;;;;;;;;;5027711;28;20033;-61
2024/04/04 01:44:59;;;;;;;2.80;1.60;;;;;;;;;;5024870;28;20053;-60
2024/04/04 01:47:24;;;;;;;2.85;1.60;;;;;;;;;;5010072;28;20034;-59
2024/04/04 01:49:49;;;;;;;3.92;1.73;;;;;;;;;;5016026;28;20417;-60
2024/04/04 01:52:14;;;;;;;2.92;1.45;;;;;;;;;;5010445;28;20077;-60
2024/04/04 01:54:40;;;;;;;2.72;1.40;;;;;;;;;;5007546;28;20120;-60
2024/04/04 01:57:05;;;;;;;3.80;1.70;;;;;;;;;;4994282;28;20424;-60
2024/04/04 01:59:30;;;;;;;3.13;1.48;;;;;;;;;;5008704;28;20041;-61
2024/04/04 02:01:56;;;;;;;3.10;1.60;;;;;;;;;;5004328;28;20039;-61
2024/04/04 02:04:21;;;;;;;2.67;1.50;;;;;;;;;;5003440;28;20842;-60
2024/04/04 02:06:46;;;;;;;2.85;1.50;;;;;;;;;;4992415;28;20054;-60
2024/04/04 02:09:12;;;;;;;2.67;1.60;;;;;;;;;;4996821;28;20035;-61
2024/04/04 02:11:37;;;;;;;2.40;1.30;;;;;;;;;;5006018;28;20121;-61
2024/04/04 02:14:03;;;;;;;4.05;1.77;;;;;;;;;;5007501;28;20160;-60
2024/04/04 02:16:29;;;;;;;3.80;1.67;;;;;;;;;;5006496;28;20048;-61
2024/04/04 02:18:54;;;;;;;3.38;1.63;;;;;;;;;;5000994;28;20042;-60
2024/04/04 02:21:19;;;;;;;3.17;1.50;;;;;;;;;;5003938;28;20052;-62
2024/04/04 02:23:45;;;;;;;3.72;1.45;;;;;;;;;;5006504;28;20152;-61
2024/04/04 02:26:10;;;;;;;2.92;1.60;;;;;;;;;;5004209;28;20033;-60
2024/04/04 02:28:35;;;;;;;2.88;1.38;;;;;;;;;;4993107;28;20072;-62
2024/04/04 02:31:01;;;;;;;3.28;1.70;;;;;;;;;;5003158;28;20062;-59
2024/04/04 02:33:26;;;;;;;2.75;1.42;;;;;;;;;;4993702;28;20121;-60
2024/04/04 02:35:55;;;;;;;3.40;1.48;;;;;;;;;;4992441;28;20101;-60
2024/04/04 02:38:21;;;;;;;3.75;1.42;;;;;;;;;;4992756;28;20038;-60
2024/04/04 02:40:46;;;;;;;3.33;1.33;;;;;;;;;;4994130;28;20041;-59
2024/04/04 02:43:12;;;;;;;2.83;1.17;;;;;;;;;;4994495;28;20034;-60
2024/04/04 02:45:37;;;;;;;3.70;1.33;;;;;;;;;;4991558;28;20100;-60
2024/04/04 02:48:03;;;;;;;2.13;1.20;;;;;;;;;;4992403;28;20067;-59
2024/04/04 02:50:28;;;;;;;3.53;1.55;;;;;;;;;;4993126;28;20838;-59
2024/04/04 02:52:54;;;;;;;4.47;1.70;;;;;;;;;;4993596;28;20104;-60
2024/04/04 02:55:19;;;;;;;3.33;1.40;;;;;;;;;;5001149;28;20046;-64
2024/04/04 02:57:45;;;;;;;3.38;1.35;;;;;;;;;;5013835;28;20021;-59
2024/04/04 03:00:11;;;;;;;2.40;1.48;;;;;;;;;;5014733;28;20052;-56
2024/04/04 03:02:36;;;;;;;2.97;1.50;;;;;;;;;;5014878;28;20041;-59
2024/04/04 03:05:01;;;;;;;2.92;1.45;;;;;;;;;;5012801;28;20026;-58
2024/04/04 03:07:27;;;;;;;3.47;1.55;;;;;;;;;;5012465;28;20033;-58
2024/04/04 03:09:52;;;;;;;2.80;1.40;;;;;;;;;;5015741;28;20057;-60
2024/04/04 03:12:18;;;;;;;3.65;1.20;;;;;;;;;;5013095;28;20029;-59
2024/04/04 03:14:43;;;;;;;3.45;1.60;;;;;;;;;;5013723;28;20818;-59
2024/04/04 03:17:08;;;;;;;3.30;1.52;;;;;;;;;;5012942;28;20069;-59
2024/04/04 03:19:34;;;;;;;2.67;1.35;;;;;;;;;;5013554;28;20048;-60
2024/04/04 03:21:59;;;;;;;2.10;1.20;;;;;;;;;;5014337;28;20069;-60
2024/04/04 03:24:25;;;;;;;3.38;1.50;;;;;;;;;;5013576;28;20022;-59
2024/04/04 03:26:50;;;;;;;2.50;1.50;;;;;;;;;;5011453;28;20037;-61
2024/04/04 03:29:15;;;;;;;3.00;1.30;;;;;;;;;;5011545;28;20032;-60
2024/04/04 03:31:40;;;;;;;2.20;1.30;;;;;;;;;;5010122;28;20109;-60
2024/04/04 03:34:06;;;;;;;4.55;1.50;;;;;;;;;;5012322;28;20048;-60
2024/04/04 03:36:31;;;;;;;3.75;1.50;;;;;;;;;;5012220;28;20033;-60
2024/04/04 03:38:59;;;;;;;2.58;1.27;;;;;;;;;;5012157;28;22326;-60
2024/04/04 03:41:24;;;;;;;3.35;1.30;;;;;;;;;;5015056;28;20118;-59
2024/04/04 03:43:49;;;;;;;2.92;1.55;;;;;;;;;;5012684;28;20158;-59
2024/04/04 03:46:15;;;;;;;2.58;1.40;;;;;;;;;;5013182;28;20029;-59
2024/04/04 03:48:40;;;;;;;3.25;1.40;;;;;;;;;;5012962;28;20116;-60
2024/04/04 03:51:05;;;;;;;3.28;1.58;;;;;;;;;;5013011;28;20033;-61
2024/04/04 03:53:31;;;;;;;4.50;1.30;;;;;;;;;;5012853;28;20068;-59
2024/04/04 03:55:56;;;;;;;3.05;1.55;;;;;;;;;;5010003;28;20037;-59
2024/04/04 03:58:22;;;;;;;2.38;1.30;;;;;;;;;;5011340;28;20057;-58
2024/04/04 04:00:48;;;;;;;4.20;1.38;;;;;;;;;;5010731;28;20041;-59
2024/04/04 04:03:13;;;;;;;3.00;1.60;;;;;;;;;;5012217;28;20568;-62
2024/04/04 04:05:39;;;;;;;3.15;1.40;;;;;;;;;;5010595;28;20199;-59
2024/04/04 04:08:04;;;;;;;3.67;1.40;;;;;;;;;;5011656;28;20419;-63
2024/04/04 04:10:30;;;;;;;3.75;1.40;;;;;;;;;;5012074;28;20038;-60
2024/04/04 04:12:56;;;;;;;3.33;1.58;;;;;;;;;;5012696;28;20140;-63
2024/04/04 04:15:21;;;;;;;2.63;1.40;;;;;;;;;;5013670;28;20175;-59
2024/04/04 04:17:46;;;;;;;4.40;1.63;;;;;;;;;;5011304;28;20087;-60
2024/04/04 04:22:56;;;;;;;1.98;1.42;;;;;;;;;;5011928;28;20592;-62
2024/04/04 04:25:21;;;;;;;2.67;1.48;;;;;;;;;;5008450;28;20041;-61
2024/04/04 04:27:46;;;;;;;3.38;1.60;;;;;;;;;;5012250;28;20143;-62
2024/04/04 04:30:11;;;;;;;3.10;1.50;;;;;;;;;;5012121;28;20026;-60
2024/04/04 04:32:38;;;;;;;2.65;1.48;;;;;;;;;;5011897;28;20053;-61
2024/04/04 04:35:06;;;;;;;4.25;1.48;;;;;;;;;;5031547;28;21509;-59
2024/04/04 04:37:31;;;;;;;4.05;1.25;;;;;;;;;;5031855;28;20077;-59
2024/04/04 04:39:57;;;;;;;3.58;1.67;;;;;;;;;;5031264;28;20128;-59
2024/04/04 04:42:22;;;;;;;3.05;1.60;;;;;;;;;;5029658;28;20162;-60
2024/04/04 04:44:47;;;;;;;4.05;1.45;;;;;;;;;;5032087;28;20029;-60
2024/04/04 04:47:13;;;;;;;2.90;1.50;;;;;;;;;;5031124;28;20039;-62
2024/04/04 04:49:38;;;;;;;4.53;1.73;;;;;;;;;;5032728;28;20056;-60
2024/04/04 04:52:03;;;;;;;3.03;1.65;;;;;;;;;;5033519;28;20033;-60
2024/04/04 04:54:29;;;;;;;3.08;1.58;;;;;;;;;;5031022;28;20041;-59
2024/04/04 04:56:54;;;;;;;3.60;1.50;;;;;;;;;;5031880;28;20041;-62
2024/04/04 04:59:19;;;;;;;2.85;1.60;;;;;;;;;;5030593;28;20025;-59
2024/04/04 05:01:45;;;;;;;4.18;1.40;;;;;;;;;;5029624;28;20124;-59
2024/04/04 05:04:10;;;;;;;3.28;1.48;;;;;;;;;;5030093;28;20030;-60
2024/04/04 05:06:36;;;;;;;3.58;2.10;;;;;;;;;;5032560;28;20024;-59
2024/04/04 05:09:03;;;;;;;3.53;1.60;;;;;;;;;;5029869;28;20034;-61
2024/04/04 05:11:28;;;;;;;4.65;1.75;;;;;;;;;;5031217;28;20053;-59
2024/04/04 05:13:54;;;;;;;5.85;1.70;;;;;;;;;;5031137;28;20120;-60
2024/04/04 05:16:19;;;;;;;4.85;1.50;;;;;;;;;;5031519;28;20036;-61
2024/04/04 05:18:44;;;;;;;3.63;2.05;;;;;;;;;;5030353;28;20040;-61
2024/04/04 05:21:10;;;;;;;5.00;2.17;;;;;;;;;;5032159;28;20040;-61
2024/04/04 05:23:35;;;;;;;5.72;1.88;;;;;;;;;;5031113;28;20037;-60
2024/04/04 05:26:00;;;;;;;4.43;1.70;;;;;;;;;;5031060;28;20041;-62
2024/04/04 05:28:30;;;;;;;5.40;2.20;;;;;;;;;;5030486;28;20041;-60
2024/04/04 05:30:56;;;;;;;;;;;;;;;;;;5030293;28;20198;-61
2024/04/04 05:33:21;;;;;;;3.63;1.70;;;;;;;;;;5029306;28;19924;-60
2024/04/04 05:35:46;;;;;;;5.13;1.70;;;;;;;;;;5032319;28;20843;-60
2024/04/04 05:38:12;;;;;;;6.00;2.28;;;;;;;;;;5035596;28;20037;-58
2024/04/04 05:40:37;;;;;;;3.05;1.70;;;;;;;;;;5035109;28;20041;-59
2024/04/04 05:43:03;;;;;;;4.95;2.05;;;;;;;;;;5033674;28;20411;-58
2024/04/04 05:45:29;;;;;;;5.50;1.92;;;;;;;;;;5034657;28;20833;-58
2024/04/04 05:47:54;;;;;;;6.22;1.95;;;;;;;;;;5034446;28;21146;-58
2024/04/04 05:50:19;;;;;;;3.97;1.95;;;;;;;;;;5033556;28;20043;-58
2024/04/04 05:52:45;;;;;;;3.55;2.15;;;;;;;;;;5034285;28;20041;-60
2024/04/04 05:55:11;;;;;;;7.80;2.10;;;;;;;;;;5031791;28;20030;-57
2024/04/04 05:57:36;;;;;;;4.47;2.15;;;;;;;;;;5027751;28;20061;-58
2024/04/04 06:00:01;;;;;;;3.72;1.80;;;;;;;;;;5033251;28;20105;-59
2024/04/04 06:02:27;;;;;;;7.55;2.10;;;;;;;;;;5034235;28;20033;-59
2024/04/04 06:04:52;;;;;;;5.05;1.92;;;;;;;;;;5034320;28;20041;-59
2024/04/04 06:07:20;;;;;;;4.30;2.00;;;;;;;;;;5033726;28;20569;-59
2024/04/04 06:09:45;;;;;;;3.78;2.00;;;;;;;;;;5032777;28;20109;-59
2024/04/04 06:12:10;;;;;;;4.97;2.20;;;;;;;;;;5034663;28;20040;-61
2024/04/04 06:14:36;;;;;;;7.22;2.42;;;;;;;;;;5033856;28;20048;-59
2024/04/04 06:17:01;;;;;;;3.33;1.88;;;;;;;;;;5038305;28;20431;-59
2024/04/04 06:19:26;;;;;;;6.15;2.33;;;;;;;;;;5031160;28;20124;-60
2024/04/04 06:21:51;;;;;;;4.85;2.08;;;;;;;;;;5032560;28;20033;-59
2024/04/04 06:24:17;;;;;;;4.90;2.10;;;;;;;;;;5035182;28;20106;-59
2024/04/04 06:26:44;;;;;;;5.65;2.22;;;;;;;;;;5037066;28;20466;-61
2024/04/04 06:29:09;;;;;;;4.85;2.03;;;;;;;;;;5033446;28;20033;-59
2024/04/04 06:31:35;;;;;;;6.78;2.70;;;;;;;;;;5032526;28;20047;-59
2024/04/04 06:34:00;;;;;;;6.10;2.38;;;;;;;;;;5032065;28;20037;-62
2024/04/04 06:36:25;;;;;;;5.55;2.35;;;;;;;;;;5032141;28;20585;-59
2024/04/04 06:38:53;;;;;;;5.97;2.67;;;;;;;;;;5031867;28;20522;-60
2024/04/04 06:41:18;;;;;;;6.03;2.30;;;;;;;;;;5032578;28;20047;-58
2024/04/04 06:43:43;;;;;;;6.13;2.67;;;;;;;;;;5031534;28;20037;-58
2024/04/04 06:46:09;;;;;;;4.78;2.28;;;;;;;;;;5032055;28;20029;-58
2024/04/04 06:48:40;;;;;;;9.05;2.58;;;;;;;;;;5045090;22;20021;-75
2024/04/04 06:51:07;;;;;;;6.95;2.42;;;;;;;;;;5032535;28;20038;-75
2024/04/04 06:53:34;;;;;;;7.00;2.42;;;;;;;;;;5041765;28;20543;-76
2024/04/04 06:55:59;;;;;;;6.93;2.60;;;;;;;;;;5040529;28;20040;-76
2024/04/04 06:58:25;;;;;;;9.27;2.67;;;;;;;;;;5040326;28;20050;-76
2024/04/04 07:00:58;;;;;;;5.38;2.28;;;;;;;;;;5030065;28;20041;-73
2024/04/04 07:03:23;;;;;;;5.78;2.70;;;;;;;;;;5057184;28;20037;-77
2024/04/04 07:05:48;;;;;;;4.57;2.70;;;;;;;;;;5021375;28;20033;-76
2024/04/04 07:08:14;;;;;;;5.50;2.50;;;;;;;;;;5035141;28;20049;-77
2024/04/04 07:10:39;;;;;;;6.43;2.35;;;;;;;;;;5032951;28;20095;-76
2024/04/04 07:13:05;;;;;;;7.28;2.60;;;;;;;;;;5036781;28;20367;-76
2024/04/04 07:15:32;;;;;;;4.85;2.38;;;;;;;;;;5038630;28;20045;-76
2024/04/04 07:17:58;;;;;;;6.38;2.35;;;;;;;;;;5033886;28;20098;-77
2024/04/04 07:20:24;;;;;;;5.80;2.30;;;;;;;;;;5017329;28;20041;-76
2024/04/04 07:22:49;;;;;;;5.35;2.50;;;;;;;;;;5043363;28;20110;-76
2024/04/04 07:25:16;;;;;;;7.47;2.70;;;;;;;;;;5051764;28;20029;-76
2024/04/04 07:27:41;;;;;;;5.07;2.38;;;;;;;;;;5055429;28;20044;-76
2024/04/04 07:30:07;;;;;;;5.28;2.20;;;;;;;;;;5026620;28;20044;-76
2024/04/04 07:32:42;;;;;;;5.93;2.13;;;;;;;;;;5037349;28;20412;-76
2024/04/04 07:35:07;;;;;;;5.70;2.33;;;;;;;;;;5046377;28;20029;-75
2024/04/04 07:37:32;;;;;;;4.80;2.50;;;;;;;;;;5027756;28;20040;-75
2024/04/04 07:39:59;;;;;;;4.55;1.98;;;;;;;;;;5045695;28;20044;-76
2024/04/04 07:42:24;;;;;;;5.20;2.15;;;;;;;;;;5049453;28;20097;-76
2024/04/04 07:44:49;;;;;;;6.72;2.30;;;;;;;;;;5036837;28;20037;-76
2024/04/04 07:47:15;;;;;;;4.28;2.08;;;;;;;;;;5056853;28;20040;-76
2024/04/04 07:49:40;;;;;;;4.82;2.30;;;;;;;;;;5058235;28;20563;-76
2024/04/04 07:52:05;;;;;;;7.10;2.13;;;;;;;;;;5027275;28;20040;-75
2024/04/04 07:54:31;;;;;;;5.68;2.03;;;;;;;;;;5018035;28;20041;-75
2024/04/04 07:56:56;;;;;;;4.65;2.15;;;;;;;;;;5029784;28;20029;-74
2024/04/04 07:59:21;;;;;;;4.65;2.10;;;;;;;;;;5040738;28;20087;-73
2024/04/04 08:01:47;;;;;;;4.82;1.70;;;;;;;;;;5029748;28;20057;-76
2024/04/04 08:04:12;;;;;;;4.57;2.05;;;;;;;;;;5035550;28;20036;-76
2024/04/04 08:06:37;;;;;;;5.43;2.25;;;;;;;;;;5029139;28;20058;-76
2024/04/04 08:09:03;;;;;;;3.67;1.85;;;;;;;;;;5030478;28;20533;-75
2024/04/04 08:11:29;;;;;;;5.28;2.05;;;;;;;;;;5034507;28;20041;-74
2024/04/04 08:13:54;;;;;;;3.72;2.00;;;;;;;;;;5030587;28;20045;-74
2024/04/04 08:16:20;;;;;;;3.53;1.95;;;;;;;;;;5019902;28;20038;-75
2024/04/04 08:18:45;;;;;;;5.10;1.92;;;;;;;;;;5031586;28;20107;-75
2024/04/04 08:21:14;;;;;;;5.93;2.15;;;;;;;;;;5024523;28;20065;-75
2024/04/04 08:23:40;;;;;;;4.10;1.87;;;;;;;;;;5027645;28;20048;-74
2024/04/04 08:26:05;;;;;;;6.25;2.50;;;;;;;;;;5045878;28;20355;-75
2024/04/04 08:28:30;;;;;;;5.65;2.08;;;;;;;;;;5040904;28;20039;-74
2024/04/04 08:30:59;;;;;;;7.05;2.10;;;;;;;;;;5036621;28;20032;-74
2024/04/04 08:33:24;;;;;;;5.40;2.00;;;;;;;;;;5039686;28;20045;-75
2024/04/04 08:35:50;;;;;;;3.65;1.90;;;;;;;;;;5026811;28;20044;-75
2024/04/04 08:38:15;;;;;;;4.50;2.05;;;;;;;;;;5015872;28;20040;-75
2024/04/04 08:40:41;;;;;;;3.85;2.08;;;;;;;;;;5039275;28;20045;-75
2024/04/04 08:43:06;;;;;;;3.25;1.98;;;;;;;;;;5028354;28;20444;-75
2024/04/04 08:45:32;;;;;;;4.32;2.22;;;;;;;;;;5047563;28;20496;-75
2024/04/04 08:47:58;;;;;;;5.03;2.10;;;;;;;;;;5037829;28;20034;-75
2024/04/04 08:50:23;;;;;;;3.83;1.90;;;;;;;;;;5017048;28;20033;-75
2024/04/04 08:52:49;;;;;;;2.88;1.70;;;;;;;;;;5030807;28;20048;-76
2024/04/04 08:55:15;;;;;;;4.28;1.67;;;;;;;;;;5057582;28;20049;-76
2024/04/04 08:57:41;;;;;;;5.13;1.80;;;;;;;;;;5016783;28;20143;-75
2024/04/04 09:00:11;;;;;;;3.60;1.88;;;;;;;;;;5028261;28;20116;-75
2024/04/04 09:02:37;;;;;;;3.55;1.63;;;;;;;;;;5046010;28;20076;-75
2024/04/04 09:05:06;;;;;;;5.65;2.00;;;;;;;;;;5025454;28;20065;-75
2024/04/04 09:07:35;;;;;;;2.97;1.75;;;;;;;;;;5031000;28;20120;-74
2024/04/04 09:10:01;;;;;;;5.28;2.13;;;;;;;;;;5048710;28;20076;-73
2024/04/04 09:12:26;;;;;;;3.58;1.90;;;;;;;;;;5013526;28;20057;-74
2024/04/04 09:14:58;;;;;;;4.10;1.75;;;;;;;;;;5052829;28;20037;-74
2024/04/04 09:17:23;;;;;;;4.38;1.77;;;;;;;;;;5032307;28;20017;-73
2024/04/04 09:20:00;;;;;;;5.70;1.88;;;;;;;;;;5062672;28;20029;-78
2024/04/04 09:22:26;;;;;;;3.22;1.52;;;;;;;;;;5043673;28;20037;-74
2024/04/04 09:24:59;;;;;;;4.65;1.95;;;;;;;;;;5036866;28;20087;-74
2024/04/04 09:27:25;;;;;;;4.15;1.63;;;;;;;;;;5036231;28;20116;-73
2024/04/04 09:29:50;;;;;;;4.18;1.33;;;;;;;;;;5040842;28;20084;-72
2024/04/04 09:32:17;;;;;;;2.88;1.13;;;;;;;;;;5033937;28;20025;-74
2024/04/04 09:34:42;;;;;;;4.72;1.40;;;;;;;;;;5045354;28;20105;-75
2024/04/04 09:37:14;;;;;;;4.28;1.17;;;;;;;;;;5014689;28;20068;-77
2024/04/04 09:39:42;;;;;;;3.38;1.05;;;;;;;;;;5035538;28;20054;-80
2024/04/04 09:44:52;;;;;;;2.80;1.20;;;;;;;;;;5042786;28;20039;-75
2024/04/04 09:47:18;;;;;;;3.35;1.27;;;;;;;;;;5021774;28;20033;-74
2024/04/04 09:49:43;;;;;;;4.68;1.25;;;;;;;;;;5032894;28;20033;-74
2024/04/04 09:52:09;;;;;;;4.18;1.30;;;;;;;;;;5034919;28;20040;-74
2024/04/04 09:54:34;;;;;;;2.05;1.20;;;;;;;;;;5027743;28;20432;-74
2024/04/04 09:57:00;;;;;;;3.60;1.23;;;;;;;;;;5027404;28;20029;-74
2024/04/04 09:59:25;;;;;;;3.55;1.00;;;;;;;;;;5053698;28;20025;-74
2024/04/04 10:01:51;;;;;;;5.38;1.40;;;;;;;;;;5053052;28;20041;-75
2024/04/04 10:04:19;;;;;;;3.17;1.15;;;;;;;;;;5046258;28;20468;-75
2024/04/04 10:06:44;;;;;;;2.30;0.98;;;;;;;;;;5055997;28;20492;-75
2024/04/04 10:09:18;;;;;;;2.80;1.27;;;;;;;;;;5035304;28;20045;-74
2024/04/04 10:11:44;;;;;;;4.03;0.90;;;;;;;;;;5024998;28;20640;-74
2024/04/04 10:14:13;;;;;;;2.25;1.10;;;;;;;;;;5043046;28;20049;-74
2024/04/04 10:16:38;;;;;;;3.28;1.50;;;;;;;;;;5005233;28;20119;-74
2024/04/04 10:19:10;;;;;;;3.45;1.05;;;;;;;;;;5045764;28;20072;-74
2024/04/04 10:21:37;;;;;;;3.50;1.20;;;;;;;;;;5029982;28;20033;-75
2024/04/04 10:24:05;;;;;;;2.92;1.02;;;;;;;;;;5052506;28;20041;-75
2024/04/04 10:26:31;;;;;;;4.70;1.10;;;;;;;;;;5028482;28;20033;-74
2024/04/04 10:28:56;;;;;;;5.03;1.10;;;;;;;;;;5017271;28;20044;-76
2024/04/04 10:31:22;;;;;;;4.93;1.10;;;;;;;;;;5036940;28;20041;-73
2024/04/04 10:33:47;;;;;;;4.47;1.23;;;;;;;;;;5049252;28;20048;-74
2024/04/04 10:36:13;;;;;;;5.22;1.08;;;;;;;;;;5035788;28;20060;-75
2024/04/04 10:38:38;;;;;;;2.65;1.23;;;;;;;;;;5021563;28;20041;-75
2024/04/04 10:41:05;;;;;;;2.03;0.82;;;;;;;;;;5066192;28;20439;-78
2024/04/04 10:43:38;;;;;;;5.30;1.23;;;;;;;;;;5029458;28;20036;-73
2024/04/04 10:46:03;;;;;;;2.63;0.95;;;;;;;;;;5030177;28;20033;-76
2024/04/04 10:48:29;;;;;;;3.92;1.00;;;;;;;;;;5042654;28;20036;-75
2024/04/04 10:50:55;;;;;;;3.33;1.02;;;;;;;;;;5029978;28;20123;-74
2024/04/04 10:53:21;;;;;;;3.25;1.10;;;;;;;;;;5035350;28;20129;-75
2024/04/04 10:55:46;;;;;;;5.78;0.95;;;;;;;;;;5030580;28;20083;-74
2024/04/04 10:58:12;;;;;;;5.00;1.02;;;;;;;;;;5031644;28;20119;-74
2024/04/04 11:00:37;;;;;;;3.03;1.05;;;;;;;;;;5032231;28;20541;-74
2024/04/04 11:03:09;;;;;;;2.95;1.00;;;;;;;;;;5043854;28;20025;-73
2024/04/04 11:05:34;;;;;;;3.63;1.20;;;;;;;;;;5026425;28;20026;-70
2024/04/04 11:08:01;;;;;;;3.65;1.10;;;;;;;;;;5049822;28;20082;-71
2024/04/04 11:10:26;;;;;;;3.25;1.23;;;;;;;;;;5043932;28;20566;-70
2024/04/04 11:12:52;;;;;;;2.30;0.80;;;;;;;;;;5049261;28;20060;-71
2024/04/04 11:15:17;;;;;;;4.63;1.05;;;;;;;;;;5025773;28;20033;-69
2024/04/04 11:17:43;;;;;;;1.90;0.73;;;;;;;;;;5024344;28;20033;-70
2024/04/04 11:20:08;;;;;;;3.50;1.00;;;;;;;;;;5037978;28;20048;-70
2024/04/04 11:22:36;;;;;;;4.07;1.05;;;;;;;;;;5024716;28;20049;-70
2024/04/04 11:25:02;;;;;;;1.98;0.93;;;;;;;;;;5027825;28;20495;-70
2024/04/04 11:27:27;;;;;;;2.55;0.95;;;;;;;;;;5045989;28;20040;-70
2024/04/04 11:29:53;;;;;;;2.55;1.10;;;;;;;;;;5046549;28;20083;-69
2024/04/04 11:32:18;;;;;;;2.60;0.80;;;;;;;;;;5042753;28;20033;-69
2024/04/04 11:34:44;;;;;;;2.85;0.95;;;;;;;;;;5046085;28;20552;-71
2024/04/04 11:37:09;;;;;;;2.20;0.95;;;;;;;;;;5045895;28;20112;-70
2024/04/04 11:39:35;;;;;;;2.47;0.82;;;;;;;;;;5051174;28;20052;-70
2024/04/04 11:42:01;;;;;;;2.72;0.98;;;;;;;;;;5029248;28;20436;-71
2024/04/04 11:44:26;;;;;;;1.50;0.90;;;;;;;;;;5048043;28;20678;-70
2024/04/04 11:46:51;;;;;;;2.13;1.00;;;;;;;;;;5043895;28;20036;-70
2024/04/04 11:49:18;;;;;;;2.53;1.02;;;;;;;;;;5045484;28;20041;-70
2024/04/04 11:51:44;;;;;;;3.58;0.80;;;;;;;;;;5048340;28;20049;-70
2024/04/04 11:54:09;;;;;;;1.40;0.60;;;;;;;;;;5043514;28;20103;-70
2024/04/04 11:56:34;;;;;;;3.15;0.77;;;;;;;;;;5026091;28;20397;-70
2024/04/04 11:59:00;;;;;;;3.58;0.88;;;;;;;;;;5014417;28;20072;-70
2024/04/04 12:01:25;;;;;;;2.70;0.80;;;;;;;;;;5028850;28;20565;-70
2024/04/04 12:03:51;;;;;;;2.17;0.80;;;;;;;;;;5027606;28;20041;-70
2024/04/04 12:06:16;;;;;;;2.40;0.77;;;;;;;;;;5043773;28;20071;-70
2024/04/04 12:08:41;;;;;;;2.60;0.68;;;;;;;;;;5011276;28;20517;-70
2024/04/04 12:11:09;;;;;;;2.53;1.02;;;;;;;;;;5047128;28;20599;-70
2024/04/04 12:13:34;;;;;;;2.67;0.70;;;;;;;;;;5027062;28;20097;-70
2024/04/04 12:16:00;;;;;;;1.50;0.70;;;;;;;;;;5039521;28;20447;-70
2024/04/04 12:21:14;;;;;;;3.17;1.15;;;;;;;;;;5044067;28;20047;-70
2024/04/04 12:23:40;;;;;;;2.35;0.80;;;;;;;;;;5035990;28;20029;-70
2024/04/04 12:26:06;;;;;;;2.10;0.80;;;;;;;;;;5020368;28;20118;-70
2024/04/04 12:28:32;;;;;;;1.55;0.63;;;;;;;;;;5032529;28;20036;-71
2024/04/04 12:30:57;;;;;;;3.08;0.60;;;;;;;;;;5047665;28;20124;-70
2024/04/04 12:33:22;;;;;;;3.40;0.70;;;;;;;;;;5036191;28;20065;-70
2024/04/04 12:35:47;;;;;;;2.83;0.90;;;;;;;;;;5044895;28;20175;-71
2024/04/04 12:38:13;;;;;;;3.40;0.90;;;;;;;;;;5032979;28;20048;-70
2024/04/04 12:40:39;;;;;;;3.08;0.88;;;;;;;;;;5042959;28;20066;-70
2024/04/04 12:43:04;;;;;;;1.50;0.70;;;;;;;;;;5019431;28;20041;-69
2024/04/04 12:45:30;;;;;;;2.25;0.70;;;;;;;;;;5035931;28;20037;-70
2024/04/04 12:47:55;;;;;;;2.70;0.57;;;;;;;;;;5042684;28;20130;-70
2024/04/04 12:50:23;;;;;;;1.20;0.40;;;;;;;;;;5048440;28;20067;-70
2024/04/04 12:52:50;;;;;;;1.92;0.73;;;;;;;;;;5053668;28;20038;-70
2024/04/04 12:55:16;;;;;;;1.25;0.60;;;;;;;;;;5036216;28;20124;-70
2024/04/04 12:57:43;;;;;;;1.52;0.70;;;;;;;;;;5025807;28;20114;-70
2024/04/04 13:00:09;;;;;;;3.47;0.70;;;;;;;;;;5030268;28;20033;-70
2024/04/04 13:02:35;;;;;;;1.85;0.57;;;;;;;;;;5013964;28;20037;-70
2024/04/04 13:05:00;;;;;;;1.67;0.43;;;;;;;;;;5050393;28;20036;-70
2024/04/04 13:07:25;;;;;;;2.70;0.75;;;;;;;;;;5031273;28;20099;-70
2024/04/04 13:09:51;;;;;;;2.38;0.68;;;;;;;;;;5054914;28;20037;-70
2024/04/04 13:12:17;;;;;;;2.03;0.82;;;;;;;;;;5037825;28;20034;-70
2024/04/04 13:14:42;;;;;;;2.58;0.60;;;;;;;;;;5025045;28;20103;-71
2024/04/04 13:17:08;;;;;;;2.13;0.73;;;;;;;;;;5019527;28;20021;-70
2024/04/04 13:19:33;;;;;;;1.50;0.55;;;;;;;;;;5030373;28;20041;-73
2024/04/04 13:21:59;;;;;;;1.60;0.60;;;;;;;;;;5040944;28;20055;-73
2024/04/04 13:24:24;;;;;;;1.83;0.63;;;;;;;;;;5023235;28;20029;-70
2024/04/04 13:26:50;;;;;;;2.33;0.65;;;;;;;;;;5048859;28;20034;-70
2024/04/04 13:29:15;;;;;;;3.50;0.68;;;;;;;;;;5032855;28;20029;-70
2024/04/04 13:31:41;;;;;;;3.60;0.60;;;;;;;;;;5042516;28;20033;-70
2024/04/04 13:34:07;;;;;;;1.38;0.50;;;;;;;;;;5044863;28;20032;-70
2024/04/04 13:36:32;;;;;;;1.08;0.50;;;;;;;;;;5037359;28;20036;-70
2024/04/04 13:38:58;;;;;;;1.50;0.40;;;;;;;;;;5056745;28;20393;-70
2024/04/04 13:41:23;;;;;;;1.67;0.60;;;;;;;;;;5037609;28;20374;-70
2024/04/04 13:43:48;;;;;;;1.67;0.50;;;;;;;;;;5039256;28;20064;-70
2024/04/04 13:46:13;;;;;;;2.15;0.50;;;;;;;;;;5028993;28;20522;-70
2024/04/04 13:48:39;;;;;;;6.32;0.85;;;;;;;;;;5020766;28;20038;-70
2024/04/04 13:51:04;;;;;;;5.10;1.02;;;;;;;;;;5037270;28;20509;-70
2024/04/04 13:53:30;;;;;;;2.05;0.70;;;;;;;;;;5038358;28;20034;-71
2024/04/04 13:55:56;;;;;;;1.48;0.40;;;;;;;;;;5047953;28;20037;-70
2024/04/04 13:58:21;;;;;;;1.88;0.50;;;;;;;;;;5035569;28;20037;-70
2024/04/04 14:00:47;;;;;;;1.77;0.57;;;;;;;;;;5042861;28;20491;-70
2024/04/04 14:03:12;;;;;;;1.58;0.60;;;;;;;;;;5032102;28;20033;-70
2024/04/04 14:05:37;;;;;;;2.80;0.55;;;;;;;;;;5043543;28;20544;-70
2024/04/04 14:08:03;;;;;;;1.13;0.40;;;;;;;;;;5035276;28;20029;-70
2024/04/04 14:10:28;;;;;;;1.40;0.40;;;;;;;;;;5046850;28;20515;-70
2024/04/04 14:12:54;;;;;;;1.17;0.40;;;;;;;;;;5027718;28;20188;-70
2024/04/04 14:15:19;;;;;;;2.17;0.43;;;;;;;;;;5051917;28;20115;-70
2024/04/04 14:17:44;;;;;;;2.28;0.70;;;;;;;;;;5048299;28;20044;-70
2024/04/04 14:20:13;;;;;;;2.40;0.40;;;;;;;;;;5047901;28;20068;-70
2024/04/04 14:22:38;;;;;;;1.65;0.57;;;;;;;;;;5040349;28;20119;-70
2024/04/04 14:25:04;;;;;;;1.58;0.40;;;;;;;;;;5026091;28;20480;-70
2024/04/04 14:27:29;;;;;;;1.75;0.50;;;;;;;;;;5037704;28;20475;-70
2024/04/04 14:29:57;;;;;;;2.22;0.50;;;;;;;;;;5016408;28;20041;-70
2024/04/04 14:32:22;;;;;;;1.98;0.55;;;;;;;;;;5033250;28;20041;-69
2024/04/04 14:34:48;;;;;;;1.40;0.45;;;;;;;;;;5029279;28;20090;-69
2024/04/04 14:37:13;;;;;;;2.92;0.50;;;;;;;;;;5050727;28;20037;-69
2024/04/04 14:39:38;;;;;;;2.90;0.60;;;;;;;;;;5018975;28;20036;-70
2024/04/04 14:42:04;;;;;;;1.38;0.40;;;;;;;;;;5032275;28;20037;-70
2024/04/04 14:44:29;;;;;;;2.70;0.50;;;;;;;;;;5019784;28;20569;-70